Time;durP1;ratioP1;P1;durP2;ratioP2;P2;SDS_P1;SDS_P2;PMS_P1;PMS_P2;Temp;Humidity;BMP_temperature;BMP_pressure;BME280_temperature;BME280_humidity;BME280_pressure;Samples;Min_cycle;Max_cycle;Signal;HPM_P1;HPM_P2
2021/03/26 00:01:50;;;;;;;25.55;13.95;;;8.70;99.90;;;;;;5035171;28;20025;-79
2021/03/26 00:04:18;;;;;;;24.90;14.10;;;8.70;99.90;;;;;;5032596;28;20400;-80
2021/03/26 00:06:47;;;;;;;24.10;13.80;;;8.70;99.90;;;;;;5049170;28;20112;-80
2021/03/26 00:09:16;;;;;;;26.83;13.73;;;8.60;99.90;;;;;;5035144;28;20515;-81
2021/03/26 00:11:43;;;;;;;28.00;14.13;;;8.60;99.90;;;;;;5034067;28;20029;-82
2021/03/26 00:14:08;;;;;;;24.20;13.27;;;8.60;99.90;;;;;;5032254;28;20041;-81
2021/03/26 00:16:35;;;;;;;23.00;14.07;;;;;;;;;;5033335;28;20090;-82
2021/03/26 00:19:00;;;;;;;26.02;13.73;;;8.60;99.90;;;;;;5038054;28;20034;-81
2021/03/26 00:21:26;;;;;;;24.52;13.88;;;8.60;99.90;;;;;;5035599;28;20041;-83
2021/03/26 00:23:52;;;;;;;25.90;13.98;;;8.60;99.90;;;;;;5033588;28;20040;-80
2021/03/26 00:26:19;;;;;;;26.77;14.02;;;8.60;99.90;;;;;;5029508;28;20036;-81
2021/03/26 00:28:47;;;;;;;27.45;14.48;;;8.60;99.90;;;;;;5031799;28;20113;-82
2021/03/26 00:31:13;;;;;;;26.63;14.68;;;8.60;99.90;;;;;;5035420;28;20034;-80
2021/03/26 00:33:39;;;;;;;23.90;14.07;;;8.60;99.90;;;;;;5034603;28;20040;-80
2021/03/26 00:36:05;;;;;;;25.40;13.57;;;8.60;99.90;;;;;;5029861;28;20418;-81
2021/03/26 00:38:31;;;;;;;23.65;13.23;;;5.80;99.90;;;;;;5032524;28;20037;-81
2021/03/26 00:40:57;;;;;;;25.77;14.23;;;8.60;99.90;;;;;;5034876;28;20075;-80
2021/03/26 00:43:26;;;;;;;21.98;12.93;;;8.60;99.90;;;;;;5034329;28;20033;-80
2021/03/26 00:45:51;;;;;;;26.42;14.57;;;8.60;99.90;;;;;;5034849;28;20033;-80
2021/03/26 00:48:21;;;;;;;29.75;16.60;;;8.50;99.90;;;;;;5030551;28;20025;-80
2021/03/26 00:50:50;;;;;;;33.05;18.25;;;8.50;99.90;;;;;;5033272;28;20037;-79
2021/03/26 00:53:22;;;;;;;21.52;13.60;;;8.40;99.90;;;;;;5032957;28;20040;-80
2021/03/26 00:55:48;;;;;;;29.40;14.85;;;8.40;99.90;;;;;;5036833;28;20025;-80
2021/03/26 00:58:14;;;;;;;30.27;16.02;;;;;;;;;;5035022;28;20040;-80
2021/03/26 01:00:40;;;;;;;93.95;40.70;;;8.30;99.90;;;;;;5035116;28;20025;-81
2021/03/26 01:03:07;;;;;;;34.53;17.95;;;8.30;99.90;;;;;;5033530;28;20369;-82
2021/03/26 01:05:36;;;;;;;24.08;13.38;;;8.30;99.90;;;;;;5050597;28;20476;-80
2021/03/26 01:08:03;;;;;;;28.10;12.95;;;8.20;99.90;;;;;;5028950;28;20032;-80
2021/03/26 01:10:33;;;;;;;21.73;12.55;;;8.10;99.90;;;;;;5030268;28;20107;-82
2021/03/26 01:12:59;;;;;;;22.73;12.13;;;8.10;99.90;;;;;;5032000;28;20064;-81
2021/03/26 01:15:27;;;;;;;23.73;13.55;;;8.10;99.90;;;;;;5032950;28;20056;-79
2021/03/26 01:17:54;;;;;;;23.83;12.93;;;8.00;99.90;;;;;;5031473;28;20374;-81
2021/03/26 01:20:27;;;;;;;22.27;13.35;;;8.00;99.90;;;;;;5031662;28;20491;-81
2021/03/26 01:22:52;;;;;;;22.45;13.30;;;8.00;99.90;;;;;;5034535;28;20040;-82
2021/03/26 01:25:29;;;;;;;22.52;12.73;;;8.00;99.90;;;;;;5035143;28;20505;-82
2021/03/26 01:27:55;;;;;;;23.10;13.80;;;7.90;99.90;;;;;;5036067;28;20029;-83
2021/03/26 01:30:23;;;;;;;25.25;14.35;;;7.90;99.90;;;;;;5035915;28;20056;-81
2021/03/26 01:32:52;;;;;;;24.45;13.98;;;7.90;99.90;;;;;;5031219;28;20029;-84
2021/03/26 01:35:20;;;;;;;26.48;13.82;;;7.90;99.90;;;;;;5032658;28;20052;-81
2021/03/26 01:37:45;;;;;;;28.48;13.57;;;7.90;99.90;;;;;;5033478;28;20033;-81
2021/03/26 01:40:14;;;;;;;24.60;13.40;;;7.80;99.90;;;;;;5031693;28;20097;-83
2021/03/26 01:42:40;;;;;;;26.55;14.23;;;7.80;99.90;;;;;;5034872;28;20034;-82
2021/03/26 01:45:21;;;;;;;23.52;13.20;;;7.80;99.90;;;;;;5034481;28;20056;-82
2021/03/26 01:47:49;;;;;;;21.33;13.60;;;7.80;99.90;;;;;;5034127;28;20172;-81
2021/03/26 01:50:18;;;;;;;23.80;13.48;;;7.90;99.90;;;;;;5034688;28;20104;-83
2021/03/26 01:52:44;;;;;;;26.48;13.25;;;7.90;99.90;;;;;;5030640;28;20149;-81
2021/03/26 01:55:11;;;;;;;25.05;13.27;;;10.60;99.90;;;;;;5034623;28;20038;-82
2021/03/26 01:57:37;;;;;;;24.70;13.38;;;7.80;99.90;;;;;;5036724;28;20101;-80
2021/03/26 02:00:10;;;;;;;20.48;13.25;;;7.80;99.90;;;;;;5031726;28;20070;-82
2021/03/26 02:02:35;;;;;;;24.17;13.85;;;7.80;99.90;;;;;;5034307;28;20030;-82
2021/03/26 02:05:01;;;;;;;28.08;14.43;;;7.80;99.90;;;;;;5034199;28;20085;-81
2021/03/26 02:07:29;;;;;;;22.85;13.20;;;7.80;99.90;;;;;;5036379;28;20030;-82
2021/03/26 02:09:55;;;;;;;26.52;13.57;;;7.80;99.90;;;;;;5036044;28;20457;-81
2021/03/26 02:12:27;;;;;;;28.77;14.13;;;7.80;99.90;;;;;;5033887;28;20092;-80
2021/03/26 02:14:56;;;;;;;23.40;14.13;;;9.60;99.90;;;;;;5034512;28;20036;-79
2021/03/26 02:17:25;;;;;;;26.52;14.13;;;7.80;99.90;;;;;;5035921;28;20386;-79
2021/03/26 02:19:56;;;;;;;25.70;13.45;;;7.80;99.90;;;;;;5033974;28;20129;-79
2021/03/26 02:22:27;;;;;;;25.63;14.23;;;7.80;99.90;;;;;;5033010;28;20021;-80
2021/03/26 02:24:53;;;;;;;30.73;15.07;;;7.80;99.90;;;;;;5035003;28;20064;-81
2021/03/26 02:27:33;;;;;;;26.15;14.98;;;7.70;99.90;;;;;;5032311;28;20029;-83
2021/03/26 02:30:05;;;;;;;24.55;14.43;;;7.70;99.90;;;;;;5028485;28;20515;-81
2021/03/26 02:32:36;;;;;;;23.45;14.10;;;7.60;99.90;;;;;;5033119;28;20064;-82
2021/03/26 02:35:18;;;;;;;24.92;13.93;;;7.60;99.90;;;;;;5026474;28;20037;-82
2021/03/26 02:38:02;;;;;;;23.52;14.30;;;7.50;99.90;;;;;;5033118;28;20569;-82
2021/03/26 02:40:30;;;;;;;23.83;13.40;;;7.50;99.90;;;;;;5033386;28;20061;-81
2021/03/26 02:43:22;;;;;;;23.20;13.82;;;7.50;99.90;;;;;;5032951;28;20029;-83
2021/03/26 02:45:59;;;;;;;21.67;13.38;;;7.40;99.90;;;;;;5026304;28;20041;-83
2021/03/26 02:48:36;;;;;;;24.13;13.95;;;7.30;99.90;;;;;;5023773;28;20037;-79
2021/03/26 02:51:15;;;;;;;25.13;13.95;;;7.50;99.90;;;;;;5029710;28;20056;-79
2021/03/26 02:54:15;;;;;;;25.30;13.75;;;7.20;99.90;;;;;;5030873;28;20503;-79
2021/03/26 02:56:54;;;;;;;23.42;13.38;;;7.20;99.90;;;;;;5019028;28;20132;-83
2021/03/26 02:59:32;;;;;;;26.08;14.65;;;7.20;99.90;;;;;;5033521;28;20075;-81
2021/03/26 03:01:59;;;;;;;22.98;13.25;;;7.30;99.90;;;;;;5034723;28;20026;-83
2021/03/26 03:04:33;;;;;;;23.38;13.60;;;7.20;99.90;;;;;;5029211;28;20392;-81
2021/03/26 03:07:08;;;;;;;21.67;13.27;;;7.10;99.90;;;;;;5030245;28;20025;-82
2021/03/26 03:09:38;;;;;;;23.67;14.57;;;7.10;99.90;;;;;;5026090;28;20037;-80
2021/03/26 03:12:29;;;;;;;29.20;14.95;;;7.10;99.90;;;;;;5023840;28;20029;-82
2021/03/26 03:15:09;;;;;;;23.83;14.10;;;7.00;99.90;;;;;;5028100;28;20048;-82
2021/03/26 03:17:47;;;;;;;23.63;13.68;;;7.00;99.90;;;;;;5027576;28;20029;-83
2021/03/26 03:20:36;;;;;;;24.98;14.40;;;7.00;99.90;;;;;;5027811;28;20042;-81
2021/03/26 03:23:38;;;;;;;28.02;14.65;;;6.90;99.90;;;;;;5032240;28;20070;-80
2021/03/26 03:26:16;;;;;;;23.25;13.00;;;6.90;99.90;;;;;;5026488;28;20574;-83
2021/03/26 03:29:14;;;;;;;27.20;14.32;;;6.90;99.90;;;;;;5031110;28;20026;-83
2021/03/26 03:31:48;;;;;;;26.65;13.63;;;6.90;99.90;;;;;;5032236;28;20314;-83
2021/03/26 03:34:31;;;;;;;25.33;13.52;;;6.90;99.90;;;;;;5029065;28;20190;-81
2021/03/26 03:37:07;;;;;;;21.92;13.05;;;6.90;99.90;;;;;;5014689;28;20029;-80
2021/03/26 03:39:50;;;;;;;25.13;14.90;;;6.80;99.90;;;;;;5029084;28;20566;-81
2021/03/26 03:42:35;;;;;;;25.50;14.70;;;6.70;99.90;;;;;;5031129;28;20511;-80
2021/03/26 03:45:16;;;;;;;30.02;14.43;;;6.60;99.90;;;;;;5040598;28;20682;-81
2021/03/26 03:48:04;;;;;;;26.17;14.45;;;6.50;99.90;;;;;;5026244;28;20029;-80
2021/03/26 03:50:40;;;;;;;25.27;14.23;;;6.50;99.90;;;;;;5030992;28;20057;-83
2021/03/26 03:53:16;;;;;;;29.60;14.75;;;6.50;99.90;;;;;;5023084;28;20089;-78
2021/03/26 03:55:45;;;;;;;30.63;15.73;;;6.50;99.90;;;;;;5030811;28;20080;-81
2021/03/26 03:58:28;;;;;;;27.48;15.35;;;6.50;99.90;;;;;;5030354;28;20032;-83
2021/03/26 04:01:18;;;;;;;26.05;14.20;;;6.50;99.90;;;;;;5043763;28;20491;-80
2021/03/26 04:03:57;;;;;;;27.83;14.65;;;6.50;99.90;;;;;;5026361;28;20146;-80
2021/03/26 04:06:48;;;;;;;27.98;15.05;;;6.50;99.90;;;;;;5046756;28;20038;-79
2021/03/26 04:09:15;;;;;;;;;;;6.50;99.90;;;;;;5041640;28;20049;-81
2021/03/26 04:11:43;;;;;;;27.88;14.48;;;6.50;99.90;;;;;;5030460;28;19920;-82
2021/03/26 04:14:38;;;;;;;26.88;14.70;;;6.40;99.90;;;;;;5032657;28;20102;-80
2021/03/26 04:17:25;;;;;;;29.88;15.55;;;6.50;99.90;;;;;;5030529;28;20026;-82
2021/03/26 04:20:00;;;;;;;27.92;14.93;;;6.40;99.90;;;;;;5036369;28;20049;-82
2021/03/26 04:22:31;;;;;;;27.45;15.30;;;6.50;99.90;;;;;;5040611;28;20035;-81
2021/03/26 04:25:13;;;;;;;27.55;15.95;;;6.50;99.90;;;;;;5042076;28;20037;-82
2021/03/26 04:27:41;;;;;;;26.65;16.08;;;6.50;99.90;;;;;;5024819;28;20403;-81
2021/03/26 04:30:27;;;;;;;28.33;15.68;;;6.50;99.90;;;;;;5032120;28;20112;-82
2021/03/26 04:32:54;;;;;;;30.13;16.27;;;6.40;99.90;;;;;;5026855;28;20716;-80
2021/03/26 04:35:20;;;;;;;27.88;16.02;;;6.30;99.90;;;;;;5030276;28;20025;-82
2021/03/26 04:38:19;;;;;;;27.63;15.55;;;6.40;99.90;;;;;;5030963;28;20038;-85
2021/03/26 04:40:49;;;;;;;26.33;15.10;;;6.40;99.90;;;;;;5043483;28;20064;-82
2021/03/26 04:43:15;;;;;;;29.08;15.98;;;;;;;;;;5032813;28;20037;-80
2021/03/26 04:45:54;;;;;;;33.22;16.05;;;6.30;99.90;;;;;;5028810;28;20037;-80
2021/03/26 04:48:35;;;;;;;28.17;15.18;;;6.30;99.90;;;;;;5032600;28;20087;-79
2021/03/26 04:51:42;;;;;;;29.08;14.98;;;6.30;99.90;;;;;;5046503;28;20034;-80
2021/03/26 04:54:34;;;;;;;26.90;15.57;;;6.30;99.90;;;;;;5031092;28;20041;-80
2021/03/26 04:57:10;;;;;;;32.28;17.45;;;6.30;99.90;;;;;;5029677;28;20405;-81
2021/03/26 04:59:59;;;;;;;30.48;17.52;;;6.20;99.90;;;;;;5041360;28;20025;-79
2021/03/26 05:02:25;;;;;;;34.15;18.08;;;6.20;99.90;;;;;;5028978;28;20052;-79
2021/03/26 05:04:55;;;;;;;29.50;16.77;;;6.30;99.90;;;;;;5025811;28;20484;-81
2021/03/26 05:07:31;;;;;;;35.33;18.55;;;6.30;99.90;;;;;;5030610;28;20053;-83
2021/03/26 05:10:00;;;;;;;33.00;17.42;;;6.30;99.90;;;;;;5031825;28;20029;-79
2021/03/26 05:12:41;;;;;;;32.97;17.55;;;6.40;99.90;;;;;;5030638;28;20097;-79
2021/03/26 05:15:20;;;;;;;33.95;17.50;;;6.40;99.90;;;;;;5031633;28;20029;-80
2021/03/26 05:17:54;;;;;;;30.23;18.60;;;6.40;99.90;;;;;;5031297;28;20026;-77
2021/03/26 05:20:25;;;;;;;32.88;17.38;;;6.40;99.90;;;;;;5026797;28;20030;-79
2021/03/26 05:23:20;;;;;;;32.35;16.95;;;6.40;99.90;;;;;;5035019;28;20100;-79
2021/03/26 05:25:49;;;;;;;31.50;18.10;;;6.40;99.90;;;;;;5030012;28;20018;-83
2021/03/26 05:28:21;;;;;;;30.15;17.13;;;6.40;99.90;;;;;;5028301;28;20611;-81
2021/03/26 05:30:48;;;;;;;32.08;17.13;;;6.40;99.90;;;;;;5048716;28;20158;-80
2021/03/26 05:33:36;;;;;;;33.55;17.92;;;6.40;99.90;;;;;;5031843;28;20484;-77
2021/03/26 05:36:02;;;;;;;33.92;17.48;;;;;;;;;;5025351;28;20025;-77
2021/03/26 05:38:35;;;;;;;31.73;17.77;;;6.40;99.90;;;;;;5042116;28;20030;-80
2021/03/26 05:41:39;;;;;;;36.08;18.63;;;6.40;99.90;;;;;;5046685;28;20026;-81
2021/03/26 05:44:34;;;;;;;31.85;17.50;;;6.40;99.90;;;;;;5034297;28;20112;-82
2021/03/26 05:47:08;;;;;;;34.55;17.85;;;6.50;99.90;;;;;;5027872;28;20035;-80
2021/03/26 05:49:44;;;;;;;40.60;18.85;;;6.40;99.90;;;;;;5027873;28;20033;-77
2021/03/26 05:52:48;;;;;;;35.78;18.52;;;6.50;99.90;;;;;;5034056;28;20059;-80
2021/03/26 05:55:38;;;;;;;34.92;18.52;;;6.50;99.90;;;;;;5041315;28;20091;-81
2021/03/26 05:58:15;;;;;;;35.55;18.30;;;6.50;99.90;;;;;;5020061;28;20037;-80
2021/03/26 06:01:03;;;;;;;42.03;18.58;;;6.50;99.90;;;;;;5026728;28;20069;-81
2021/03/26 06:03:40;;;;;;;40.40;19.88;;;6.50;99.90;;;;;;5028238;28;20033;-80
2021/03/26 06:06:25;;;;;;;37.75;16.55;;;;;;;;;;5026306;28;20112;-81
2021/03/26 06:09:09;;;;;;;37.95;19.08;;;6.50;99.90;;;;;;5041807;28;20551;-78
2021/03/26 06:11:41;;;;;;;38.92;16.83;;;;;;;;;;5022878;28;20087;-82
2021/03/26 06:14:07;;;;;;;38.72;16.98;;;;;;;;;;5019918;28;20488;-83
2021/03/26 06:16:39;;;;;;;32.53;17.10;;;;;;;;;;5020215;28;20102;-80
2021/03/26 06:19:19;;;;;;;34.95;16.90;;;7.00;99.90;;;;;;5024154;28;20140;-82
2021/03/26 06:21:54;;;;;;;35.15;17.92;;;6.90;99.90;;;;;;5018194;28;20098;-83
2021/03/26 06:24:26;;;;;;;38.00;17.45;;;6.90;99.90;;;;;;5023550;28;20022;-82
2021/03/26 06:27:14;;;;;;;34.47;17.65;;;6.90;99.90;;;;;;5024663;28;20061;-84
2021/03/26 06:29:48;;;;;;;42.90;18.55;;;6.90;99.90;;;;;;5028045;28;20116;-80
2021/03/26 06:32:41;;;;;;;35.05;17.38;;;6.90;99.90;;;;;;5022167;28;20530;-81
2021/03/26 06:35:41;;;;;;;35.95;16.35;;;7.10;99.90;;;;;;5022548;28;20040;-84
2021/03/26 06:38:10;;;;;;;40.60;18.20;;;;;;;;;;5015549;28;20068;-81
2021/03/26 06:40:36;;;;;;;43.00;17.77;;;;;;;;;;5021907;28;20034;-82
2021/03/26 06:43:22;;;;;;;38.65;17.35;;;7.40;99.90;;;;;;5019935;28;20053;-82
2021/03/26 06:46:00;;;;;;;34.70;16.35;;;7.50;99.90;;;;;;5028171;28;20406;-81
2021/03/26 06:48:26;;;;;;;38.45;16.35;;;;;;;;;;5029054;28;20037;-83
2021/03/26 06:51:01;;;;;;;33.88;16.02;;;7.70;99.90;;;;;;5029431;28;20029;-81
2021/03/26 06:53:46;;;;;;;37.83;17.80;;;7.80;99.90;;;;;;5029683;28;20037;-81
2021/03/26 06:56:54;;;;;;;34.13;17.77;;;7.80;99.90;;;;;;5040118;28;20471;-83
2021/03/26 06:59:38;;;;;;;30.75;16.55;;;7.90;99.90;;;;;;5028034;28;20036;-82
2021/03/26 07:02:16;;;;;;;35.83;17.35;;;8.00;99.90;;;;;;5042969;28;20106;-85
2021/03/26 07:05:08;;;;;;;36.75;17.95;;;8.10;99.90;;;;;;5042298;28;20059;-83
2021/03/26 07:07:55;;;;;;;35.40;17.60;;;8.30;99.90;;;;;;5026710;28;20124;-80
2021/03/26 07:10:44;;;;;;;35.15;16.73;;;8.40;99.90;;;;;;5030177;28;20044;-82
2021/03/26 07:13:22;;;;;;;36.72;16.38;;;8.50;99.90;;;;;;5030635;28;20041;-85
2021/03/26 07:16:14;;;;;;;36.40;17.35;;;8.60;99.90;;;;;;5029440;28;20029;-85
2021/03/26 07:19:17;;;;;;;31.08;17.17;;;8.70;99.90;;;;;;5031762;28;20040;-86
2021/03/26 07:22:08;;;;;;;33.58;15.13;;;8.80;99.90;;;;;;5030920;28;20037;-79
2021/03/26 07:25:03;;;;;;;34.90;17.05;;;9.00;99.90;;;;;;5029157;28;20033;-80
2021/03/26 07:27:31;;;;;;;31.67;15.85;;;9.10;99.90;;;;;;5027344;28;20029;-83
2021/03/26 07:30:27;;;;;;;32.10;14.93;;;9.40;99.90;;;;;;5029920;28;20025;-81
2021/03/26 07:32:53;;;;;;;28.85;15.32;;;;;;;;;;5032551;28;20073;-83
2021/03/26 07:35:19;;;;;;;27.98;14.98;;;;;;;;;;5032219;28;20026;-82
2021/03/26 07:37:57;;;;;;;25.30;12.85;;;;;;;;;;5028804;28;20049;-81
2021/03/26 07:40:47;;;;;;;27.33;13.70;;;9.70;99.20;;;;;;5029665;28;20095;-83
2021/03/26 07:43:59;;;;;;;27.40;14.48;;;10.10;98.80;;;;;;5046060;28;20043;-83
2021/03/26 07:46:49;;;;;;;27.00;13.88;;;10.10;98.80;;;;;;5048506;28;20034;-83
2021/03/26 07:49:20;;;;;;;30.10;14.00;;;;;;;;;;5030762;28;20056;-84
2021/03/26 07:51:55;;;;;;;25.42;13.07;;;;;;;;;;5032726;28;20026;-82
2021/03/26 07:55:02;;;;;;;30.92;14.60;;;10.80;98.20;;;;;;5030193;28;20025;-83
2021/03/26 07:57:47;;;;;;;23.40;12.90;;;10.80;97.10;;;;;;5009975;28;20046;-84
2021/03/26 08:00:30;;;;;;;24.65;13.65;;;10.90;97.40;;;;;;5025600;28;20084;-83
2021/03/26 08:02:58;;;;;;;23.52;12.95;;;11.10;97.00;;;;;;5031859;28;20026;-81
2021/03/26 08:05:29;;;;;;;31.80;14.60;;;11.20;96.70;;;;;;5033522;28;20021;-82
2021/03/26 08:08:41;;;;;;;25.13;13.20;;;11.70;96.80;;;;;;5034988;28;20113;-81
2021/03/26 08:11:38;;;;;;;24.83;13.50;;;11.40;96.10;;;;;;5033871;28;20037;-83
2021/03/26 08:14:19;;;;;;;26.33;13.85;;;11.50;95.80;;;;;;5032733;28;20030;-81
2021/03/26 08:16:51;;;;;;;24.65;13.85;;;11.70;95.70;;;;;;5033957;28;20033;-81
2021/03/26 08:19:35;;;;;;;24.73;14.15;;;11.70;95.70;;;;;;5045403;28;20033;-84
2021/03/26 08:22:49;;;;;;;23.25;12.70;;;11.80;95.80;;;;;;5027208;28;20125;-81
2021/03/26 08:25:41;;;;;;;19.67;11.55;;;12.00;95.10;;;;;;5014245;28;20032;-81
2021/03/26 08:28:16;;;;;;;18.60;11.52;;;12.30;94.30;;;;;;5036306;28;20025;-85
2021/03/26 08:30:55;;;;;;;20.60;11.10;;;12.50;94.30;;;;;;5049576;28;20049;-83
2021/03/26 08:33:51;;;;;;;17.98;11.23;;;12.70;93.40;;;;;;5031661;28;20567;-82
2021/03/26 08:36:25;;;;;;;17.23;9.65;;;12.90;93.40;;;;;;5030720;28;20129;-83
2021/03/26 08:39:10;;;;;;;14.55;9.52;;;13.00;92.70;;;;;;5047560;28;20033;-83
2021/03/26 08:41:39;;;;;;;16.30;9.20;;;13.20;92.10;;;;;;5035027;28;20103;-84
2021/03/26 08:44:05;;;;;;;17.35;9.35;;;13.70;91.80;;;;;;5030212;28;20036;-81
2021/03/26 08:46:37;;;;;;;18.75;9.43;;;13.50;90.90;;;;;;5030172;28;20034;-83
2021/03/26 08:49:24;;;;;;;14.00;9.55;;;13.50;90.40;;;;;;5029241;28;20021;-83
2021/03/26 08:52:19;;;;;;;16.73;9.10;;;13.60;90.70;;;;;;5030008;28;20032;-85
2021/03/26 08:54:58;;;;;;;13.77;8.02;;;13.70;90.00;;;;;;5029668;28;20029;-83
2021/03/26 08:57:43;;;;;;;10.73;6.90;;;13.70;89.10;;;;;;5024262;28;20550;-80
2021/03/26 09:00:18;;;;;;;11.73;7.25;;;13.90;88.30;;;;;;5029702;28;20515;-80
2021/03/26 09:02:55;;;;;;;13.23;7.18;;;14.00;88.20;;;;;;5042421;28;20034;-80
2021/03/26 09:05:36;;;;;;;14.73;7.70;;;14.10;88.10;;;;;;5030556;28;20673;-79
2021/03/26 09:08:22;;;;;;;14.70;7.32;;;14.20;86.40;;;;;;5029825;28;20033;-81
2021/03/26 09:11:25;;;;;;;10.80;7.25;;;14.40;86.20;;;;;;5025252;28;20029;-80
2021/03/26 09:13:58;;;;;;;11.20;7.05;;;14.50;85.70;;;;;;5031604;28;20033;-77
2021/03/26 09:16:26;;;;;;;11.07;6.78;;;14.60;85.30;;;;;;5008645;28;20037;-76
2021/03/26 09:19:17;;;;;;;11.57;7.40;;;14.60;83.40;;;;;;5016685;28;20048;-76
2021/03/26 09:21:53;;;;;;;14.18;6.50;;;14.70;84.10;;;;;;5018788;28;20163;-78
2021/03/26 09:24:40;;;;;;;9.55;5.97;;;14.70;83.20;;;;;;5023871;28;20014;-78
2021/03/26 09:27:15;;;;;;;9.93;5.97;;;14.60;82.60;;;;;;5018912;28;20029;-77
2021/03/26 09:29:41;;;;;;;11.23;6.40;;;14.70;83.00;;;;;;5024473;28;20032;-78
2021/03/26 09:32:21;;;;;;;9.80;6.43;;;14.70;84.00;;;;;;5028405;28;20025;-77
2021/03/26 09:34:59;;;;;;;10.30;6.50;;;14.80;82.20;;;;;;5019453;28;20124;-76
2021/03/26 09:37:46;;;;;;;11.25;6.35;;;14.80;81.80;;;;;;5020693;28;20033;-77
2021/03/26 09:40:27;;;;;;;10.45;6.70;;;14.70;81.00;;;;;;5017998;28;20086;-77
2021/03/26 09:43:16;;;;;;;11.90;6.13;;;14.70;81.00;;;;;;5025359;28;20029;-77
2021/03/26 09:45:50;;;;;;;8.75;4.70;;;14.80;79.90;;;;;;5037688;28;20556;-77
2021/03/26 09:48:34;;;;;;;9.60;5.22;;;14.80;78.80;;;;;;5038287;28;20630;-78
2021/03/26 09:51:34;;;;;;;8.48;4.93;;;15.00;77.60;;;;;;5025625;28;20035;-77
2021/03/26 09:54:39;;;;;;;11.10;5.45;;;15.10;78.90;;;;;;5024405;28;20152;-78
2021/03/26 09:57:44;;;;;;;5.70;3.85;;;15.40;75.00;;;;;;5025747;28;20030;-77
2021/03/26 10:00:37;;;;;;;7.57;4.05;;;15.50;71.90;;;;;;5019819;28;20029;-77
2021/03/26 10:03:15;;;;;;;6.30;4.53;;;15.70;71.80;;;;;;5042798;28;20625;-80
2021/03/26 10:05:51;;;;;;;6.75;4.00;;;16.00;69.60;;;;;;5045536;28;20072;-80
2021/03/26 10:11:31;;;;;;;8.13;4.07;;;16.00;69.00;;;;;;5029989;28;20053;-81
2021/03/26 10:14:14;;;;;;;7.10;3.58;;;15.90;67.60;;;;;;5042195;28;20021;-84
2021/03/26 10:16:49;;;;;;;6.30;3.63;;;15.40;69.40;;;;;;5032296;28;20030;-82
2021/03/26 10:19:28;;;;;;;8.68;3.85;;;15.10;68.30;;;;;;5031198;28;20091;-82
2021/03/26 10:21:56;;;;;;;5.30;3.10;;;;;;;;;;5043389;28;20041;-84
2021/03/26 10:24:30;;;;;;;8.98;3.72;;;;;;;;;;5045980;28;20097;-82
2021/03/26 10:27:20;;;;;;;6.07;4.00;;;14.90;69.50;;;;;;5033313;28;20101;-83
2021/03/26 10:30:07;;;;;;;4.85;3.28;;;15.00;70.20;;;;;;5050358;28;20364;-85
2021/03/26 10:32:35;;;;;;;5.35;3.42;;;14.80;70.00;;;;;;5034373;28;20397;-83
2021/03/26 10:35:28;;;;;;;5.20;3.33;;;13.70;70.40;;;;;;5031227;28;20369;-83
2021/03/26 10:38:03;;;;;;;7.18;2.97;;;14.80;69.80;;;;;;5024606;28;20488;-83
2021/03/26 10:40:50;;;;;;;5.05;3.08;;;14.90;68.80;;;;;;5043607;28;20072;-83
2021/03/26 10:43:45;;;;;;;5.40;3.08;;;15.10;67.80;;;;;;5043511;28;20049;-83
2021/03/26 10:46:18;;;;;;;4.97;3.20;;;15.30;66.30;;;;;;5007288;28;20038;-81
2021/03/26 10:49:10;;;;;;;4.85;3.13;;;15.40;66.50;;;;;;5027423;28;20094;-83
2021/03/26 10:51:56;;;;;;;6.10;2.92;;;15.50;65.80;;;;;;5028368;28;20049;-83
2021/03/26 10:54:36;;;;;;;4.50;2.78;;;15.60;64.20;;;;;;5027052;28;20029;-82
2021/03/26 10:57:29;;;;;;;7.22;3.10;;;15.80;63.50;;;;;;5023721;28;20029;-83
2021/03/26 11:00:14;;;;;;;5.88;3.55;;;15.30;64.20;;;;;;5024508;28;20701;-83
2021/03/26 11:02:51;;;;;;;5.75;3.78;;;15.50;65.10;;;;;;5028792;28;20034;-85
2021/03/26 11:05:35;;;;;;;9.00;3.35;;;16.10;66.90;;;;;;5031714;28;20021;-82
2021/03/26 11:08:01;;;;;;;7.22;3.38;;;15.30;67.50;;;;;;5027158;28;20022;-82
2021/03/26 11:10:38;;;;;;;6.25;3.83;;;17.50;68.60;;;;;;5035102;28;20085;-84
2021/03/26 11:13:17;;;;;;;5.63;3.70;;;15.50;66.40;;;;;;5038160;28;20038;-83
2021/03/26 11:16:04;;;;;;;7.07;3.92;;;15.50;65.20;;;;;;5019540;28;20803;-81
2021/03/26 11:18:56;;;;;;;6.22;3.50;;;16.20;66.00;;;;;;5024516;28;20057;-82
2021/03/26 11:21:25;;;;;;;7.43;3.95;;;15.80;63.10;;;;;;5038078;28;20065;-83
2021/03/26 11:24:07;;;;;;;5.72;3.38;;;15.80;62.50;;;;;;5024606;28;20040;-82
2021/03/26 11:26:42;;;;;;;7.55;3.40;;;16.00;62.40;;;;;;5021053;28;20014;-83
2021/03/26 11:29:29;;;;;;;6.45;3.88;;;16.30;61.20;;;;;;5032526;28;20025;-84
2021/03/26 11:32:25;;;;;;;6.78;3.65;;;16.40;61.20;;;;;;5033678;28;20036;-82
2021/03/26 11:35:05;;;;;;;4.97;3.40;;;16.30;60.60;;;;;;5039563;28;20061;-83
2021/03/26 11:37:48;;;;;;;5.35;3.30;;;16.10;59.10;;;;;;5021228;28;20037;-81
2021/03/26 11:40:36;;;;;;;6.03;3.38;;;16.50;60.50;;;;;;5031048;28;20037;-79
2021/03/26 11:43:27;;;;;;;7.88;3.95;;;16.10;59.90;;;;;;5026618;28;20029;-83
2021/03/26 11:46:08;;;;;;;5.38;3.50;;;17.30;61.20;;;;;;5025483;28;20025;-81
2021/03/26 11:49:02;;;;;;;10.82;4.55;;;16.10;61.90;;;;;;5028916;28;20056;-81
2021/03/26 11:51:44;;;;;;;5.75;4.65;;;15.90;61.50;;;;;;5028198;28;20351;-83
2021/03/26 11:54:26;;;;;;;9.02;4.35;;;15.90;62.40;;;;;;5034292;28;20030;-82
2021/03/26 11:57:20;;;;;;;9.35;4.93;;;15.20;63.10;;;;;;5025808;28;20026;-85
2021/03/26 12:00:17;;;;;;;6.40;4.38;;;16.00;62.60;;;;;;5042034;28;20514;-83
2021/03/26 12:03:27;;;;;;;7.88;4.10;;;15.80;62.30;;;;;;5028182;28;20029;-82
2021/03/26 12:06:17;;;;;;;5.28;3.25;;;15.90;62.60;;;;;;5030091;28;20122;-84
2021/03/26 12:09:02;;;;;;;;;;;16.80;62.20;;;;;;5031639;28;20025;-81
2021/03/26 12:11:31;;;;;;;6.28;4.20;;;16.40;59.80;;;;;;5028275;28;19948;-80
2021/03/26 12:14:15;;;;;;;8.95;4.22;;;16.50;59.00;;;;;;5039853;28;20514;-84
2021/03/26 12:17:02;;;;;;;6.40;3.95;;;16.20;58.60;;;;;;5029862;28;20237;-84
2021/03/26 12:19:32;;;;;;;7.75;4.03;;;16.70;58.60;;;;;;5027093;28;20374;-83
2021/03/26 12:22:15;;;;;;;7.03;5.07;;;17.00;58.70;;;;;;5030142;28;20026;-83
2021/03/26 12:25:15;;;;;;;7.55;4.53;;;16.70;60.30;;;;;;5030250;28;20097;-85
2021/03/26 12:27:52;;;;;;;7.18;4.78;;;16.40;60.70;;;;;;5024979;28;20083;-85
2021/03/26 12:30:35;;;;;;;8.88;5.22;;;18.90;63.50;;;;;;5037779;28;20033;-83
2021/03/26 12:33:10;;;;;;;8.32;4.55;;;;;;;;;;5027082;28;20274;-83
2021/03/26 12:35:50;;;;;;;9.40;4.60;;;16.50;59.20;;;;;;5028881;28;20029;-84
2021/03/26 12:38:19;;;;;;;6.93;4.22;;;16.50;58.40;;;;;;5031631;28;20041;-83
2021/03/26 12:40:57;;;;;;;9.57;4.93;;;;;;;;;;5032553;28;20038;-83
2021/03/26 12:43:32;;;;;;;7.90;5.40;;;;;;;;;;5049138;28;20029;-80
2021/03/26 12:46:42;;;;;;;8.02;4.97;;;16.90;58.00;;;;;;5028854;28;20768;-77
2021/03/26 12:49:13;;;;;;;7.38;5.47;;;;;;;;;;5030151;28;20152;-83
2021/03/26 12:52:02;;;;;;;8.10;4.95;;;16.70;58.80;;;;;;5041879;28;20034;-84
2021/03/26 12:54:28;;;;;;;8.80;5.47;;;;;;;;;;5030240;28;20040;-83
2021/03/26 12:57:11;;;;;;;7.18;4.88;;;17.00;58.50;;;;;;5031278;28;20049;-82
2021/03/26 12:59:52;;;;;;;7.78;4.68;;;16.70;57.30;;;;;;5044273;28;20562;-82
2021/03/26 13:02:26;;;;;;;7.78;4.70;;;18.30;60.70;;;;;;5032534;28;20048;-83
2021/03/26 13:05:20;;;;;;;6.53;4.53;;;16.70;58.30;;;;;;5035516;28;20053;-81
2021/03/26 13:08:17;;;;;;;8.15;4.75;;;16.10;58.30;;;;;;5033494;28;20030;-84
2021/03/26 13:11:12;;;;;;;7.25;5.00;;;16.90;59.20;;;;;;5038241;28;20041;-80
2021/03/26 13:13:53;;;;;;;8.13;4.72;;;16.90;58.80;;;;;;5032403;28;20053;-78
2021/03/26 13:16:36;;;;;;;9.07;4.93;;;17.00;58.70;;;;;;5039140;28;20052;-80
2021/03/26 13:19:20;;;;;;;7.18;4.75;;;17.20;58.00;;;;;;5024713;28;20525;-80
2021/03/26 13:22:11;;;;;;;7.22;4.88;;;17.40;57.40;;;;;;5020486;28;20044;-77
2021/03/26 13:24:55;;;;;;;5.55;4.25;;;17.20;57.70;;;;;;5030313;28;20034;-79
2021/03/26 13:27:23;;;;;;;6.93;3.75;;;17.10;57.10;;;;;;5018218;28;20029;-81
2021/03/26 13:29:59;;;;;;;6.80;4.20;;;17.10;57.40;;;;;;5031985;28;20029;-78
2021/03/26 13:32:37;;;;;;;5.45;3.80;;;17.20;57.70;;;;;;5018013;28;20037;-79
2021/03/26 13:35:06;;;;;;;5.63;3.85;;;17.30;56.30;;;;;;5017684;28;20021;-82
2021/03/26 13:37:38;;;;;;;8.35;4.10;;;17.40;56.40;;;;;;5043261;28;20033;-81
2021/03/26 13:40:07;;;;;;;8.27;3.92;;;19.70;56.80;;;;;;5025986;28;20506;-82
2021/03/26 13:42:45;;;;;;;5.28;3.38;;;17.50;55.80;;;;;;5028811;28;20381;-82
2021/03/26 13:45:18;;;;;;;7.45;4.22;;;17.50;55.30;;;;;;5030791;28;20029;-81
2021/03/26 13:48:00;;;;;;;5.68;3.47;;;17.60;55.00;;;;;;5028552;28;20751;-80
2021/03/26 13:50:35;;;;;;;7.18;3.60;;;17.90;54.80;;;;;;5028179;28;20063;-83